sensor_id;sensor_type;location;lat;lon;timestamp;temperature;humidity
36556;DHT22;40859;50.560;7.268;2022-08-23T00:02:07;25.30;93.30
36556;DHT22;40859;50.560;7.268;2022-08-23T00:04:48;25.30;93.30
36556;DHT22;40859;50.560;7.268;2022-08-23T00:07:15;25.30;93.70
36556;DHT22;40859;50.560;7.268;2022-08-23T00:09:42;25.30;93.40
36556;DHT22;40859;50.560;7.268;2022-08-23T00:12:19;25.30;93.40
36556;DHT22;40859;50.560;7.268;2022-08-23T00:14:51;25.30;93.40
36556;DHT22;40859;50.560;7.268;2022-08-23T00:17:19;25.30;93.30
36556;DHT22;40859;50.560;7.268;2022-08-23T00:19:46;25.30;93.30
36556;DHT22;40859;50.560;7.268;2022-08-23T00:22:13;25.30;93.30
36556;DHT22;40859;50.560;7.268;2022-08-23T00:24:40;25.30;93.30
36556;DHT22;40859;50.560;7.268;2022-08-23T00:27:12;25.30;93.30
36556;DHT22;40859;50.560;7.268;2022-08-23T00:29:50;25.30;93.30
36556;DHT22;40859;50.560;7.268;2022-08-23T00:32:34;25.30;93.30
36556;DHT22;40859;50.560;7.268;2022-08-23T00:35:01;25.30;93.30
36556;DHT22;40859;50.560;7.268;2022-08-23T00:37:29;25.30;93.30
36556;DHT22;40859;50.560;7.268;2022-08-23T00:39:56;25.30;93.30
36556;DHT22;40859;50.560;7.268;2022-08-23T00:42:37;25.30;93.30
36556;DHT22;40859;50.560;7.268;2022-08-23T00:45:47;25.30;93.30
36556;DHT22;40859;50.560;7.268;2022-08-23T00:48:34;25.30;93.30
36556;DHT22;40859;50.560;7.268;2022-08-23T00:51:29;25.30;93.30
36556;DHT22;40859;50.560;7.268;2022-08-23T00:53:59;25.30;93.30
36556;DHT22;40859;50.560;7.268;2022-08-23T00:56:30;25.30;93.30
36556;DHT22;40859;50.560;7.268;2022-08-23T00:58:59;25.30;93.30
36556;DHT22;40859;50.560;7.268;2022-08-23T01:01:25;25.30;93.40
36556;DHT22;40859;50.560;7.268;2022-08-23T01:03:54;25.30;93.40
36556;DHT22;40859;50.560;7.268;2022-08-23T01:06:30;25.30;93.40
36556;DHT22;40859;50.560;7.268;2022-08-23T01:09:10;25.30;93.40
36556;DHT22;40859;50.560;7.268;2022-08-23T01:11:59;25.30;93.40
36556;DHT22;40859;50.560;7.268;2022-08-23T01:17:54;25.30;93.40
36556;DHT22;40859;50.560;7.268;2022-08-23T01:20:23;25.20;93.40
36556;DHT22;40859;50.560;7.268;2022-08-23T01:23:01;25.20;93.40
36556;DHT22;40859;50.560;7.268;2022-08-23T01:25:31;25.20;93.30
36556;DHT22;40859;50.560;7.268;2022-08-23T01:27:59;25.20;93.30
36556;DHT22;40859;50.560;7.268;2022-08-23T01:30:28;25.20;93.30
36556;DHT22;40859;50.560;7.268;2022-08-23T01:32:58;25.20;93.30
36556;DHT22;40859;50.560;7.268;2022-08-23T01:35:49;25.20;93.30
36556;DHT22;40859;50.560;7.268;2022-08-23T01:38:16;25.20;93.30
36556;DHT22;40859;50.560;7.268;2022-08-23T01:40:43;25.20;93.30
36556;DHT22;40859;50.560;7.268;2022-08-23T01:43:10;25.20;93.30
36556;DHT22;40859;50.560;7.268;2022-08-23T01:45:39;25.20;93.30
36556;DHT22;40859;50.560;7.268;2022-08-23T01:48:05;25.20;93.60
36556;DHT22;40859;50.560;7.268;2022-08-23T01:50:32;25.20;93.20
36556;DHT22;40859;50.560;7.268;2022-08-23T01:52:58;25.20;93.60
36556;DHT22;40859;50.560;7.268;2022-08-23T01:55:25;25.20;93.60
36556;DHT22;40859;50.560;7.268;2022-08-23T01:57:54;25.20;93.20
36556;DHT22;40859;50.560;7.268;2022-08-23T02:00:26;25.20;93.20
36556;DHT22;40859;50.560;7.268;2022-08-23T02:02:52;25.20;93.10
36556;DHT22;40859;50.560;7.268;2022-08-23T02:05:18;25.20;93.10
36556;DHT22;40859;50.560;7.268;2022-08-23T02:07:44;25.20;93.20
36556;DHT22;40859;50.560;7.268;2022-08-23T02:10:10;25.20;93.30
36556;DHT22;40859;50.560;7.268;2022-08-23T02:12:36;25.10;93.20
36556;DHT22;40859;50.560;7.268;2022-08-23T02:15:04;25.10;93.20
36556;DHT22;40859;50.560;7.268;2022-08-23T02:17:31;25.10;93.20
36556;DHT22;40859;50.560;7.268;2022-08-23T02:19:57;25.10;93.20
36556;DHT22;40859;50.560;7.268;2022-08-23T02:22:23;25.10;93.20
36556;DHT22;40859;50.560;7.268;2022-08-23T02:24:49;25.10;93.20
36556;DHT22;40859;50.560;7.268;2022-08-23T02:27:16;25.10;93.20
36556;DHT22;40859;50.560;7.268;2022-08-23T02:29:43;25.10;93.20
36556;DHT22;40859;50.560;7.268;2022-08-23T02:32:12;25.10;93.10
36556;DHT22;40859;50.560;7.268;2022-08-23T02:34:41;25.10;93.10
36556;DHT22;40859;50.560;7.268;2022-08-23T02:37:08;25.10;93.10
36556;DHT22;40859;50.560;7.268;2022-08-23T02:39:36;25.10;93.10
36556;DHT22;40859;50.560;7.268;2022-08-23T02:42:02;25.10;93.10
36556;DHT22;40859;50.560;7.268;2022-08-23T02:44:28;25.10;93.10
36556;DHT22;40859;50.560;7.268;2022-08-23T02:46:55;25.10;93.20
36556;DHT22;40859;50.560;7.268;2022-08-23T02:49:22;25.10;93.10
36556;DHT22;40859;50.560;7.268;2022-08-23T02:51:48;25.00;93.20
36556;DHT22;40859;50.560;7.268;2022-08-23T02:54:15;25.10;93.20
36556;DHT22;40859;50.560;7.268;2022-08-23T02:56:41;25.00;93.20
36556;DHT22;40859;50.560;7.268;2022-08-23T02:59:07;25.00;93.10
36556;DHT22;40859;50.560;7.268;2022-08-23T03:01:37;25.00;93.20
36556;DHT22;40859;50.560;7.268;2022-08-23T03:04:07;25.00;93.20
36556;DHT22;40859;50.560;7.268;2022-08-23T03:06:33;25.00;93.20
36556;DHT22;40859;50.560;7.268;2022-08-23T03:09:02;25.00;93.20
36556;DHT22;40859;50.560;7.268;2022-08-23T03:11:29;25.10;93.20
36556;DHT22;40859;50.560;7.268;2022-08-23T03:13:55;25.00;93.10
36556;DHT22;40859;50.560;7.268;2022-08-23T03:16:23;25.10;93.20
36556;DHT22;40859;50.560;7.268;2022-08-23T03:18:50;25.00;93.10
36556;DHT22;40859;50.560;7.268;2022-08-23T03:21:18;25.00;93.10
36556;DHT22;40859;50.560;7.268;2022-08-23T03:23:44;25.00;93.10
36556;DHT22;40859;50.560;7.268;2022-08-23T03:26:12;25.00;93.20
36556;DHT22;40859;50.560;7.268;2022-08-23T03:28:39;25.00;93.10
36556;DHT22;40859;50.560;7.268;2022-08-23T03:31:07;25.00;93.10
36556;DHT22;40859;50.560;7.268;2022-08-23T03:33:34;25.00;93.20
36556;DHT22;40859;50.560;7.268;2022-08-23T03:36:02;25.00;93.20
36556;DHT22;40859;50.560;7.268;2022-08-23T03:38:28;25.00;93.10
36556;DHT22;40859;50.560;7.268;2022-08-23T03:40:54;25.00;93.50
36556;DHT22;40859;50.560;7.268;2022-08-23T03:43:20;25.00;93.10
36556;DHT22;40859;50.560;7.268;2022-08-23T03:45:47;24.90;93.10
36556;DHT22;40859;50.560;7.268;2022-08-23T03:48:13;24.90;93.10
36556;DHT22;40859;50.560;7.268;2022-08-23T03:50:39;25.00;93.20
36556;DHT22;40859;50.560;7.268;2022-08-23T03:53:05;24.90;93.00
36556;DHT22;40859;50.560;7.268;2022-08-23T03:55:32;25.00;93.00
36556;DHT22;40859;50.560;7.268;2022-08-23T03:57:58;24.90;93.10
36556;DHT22;40859;50.560;7.268;2022-08-23T04:00:24;24.90;93.10
36556;DHT22;40859;50.560;7.268;2022-08-23T04:02:50;24.90;93.10
36556;DHT22;40859;50.560;7.268;2022-08-23T04:05:16;24.90;93.10
36556;DHT22;40859;50.560;7.268;2022-08-23T04:07:43;24.90;93.10
36556;DHT22;40859;50.560;7.268;2022-08-23T04:10:10;24.90;93.20
36556;DHT22;40859;50.560;7.268;2022-08-23T04:12:40;24.90;93.10
36556;DHT22;40859;50.560;7.268;2022-08-23T04:15:07;24.90;93.20
36556;DHT22;40859;50.560;7.268;2022-08-23T04:17:34;24.90;93.50
36556;DHT22;40859;50.560;7.268;2022-08-23T04:20:02;24.90;93.20
36556;DHT22;40859;50.560;7.268;2022-08-23T04:22:28;24.90;93.20
36556;DHT22;40859;50.560;7.268;2022-08-23T04:24:54;24.90;93.20
36556;DHT22;40859;50.560;7.268;2022-08-23T04:27:21;24.90;93.20
36556;DHT22;40859;50.560;7.268;2022-08-23T04:29:47;24.90;93.20
36556;DHT22;40859;50.560;7.268;2022-08-23T04:32:13;24.90;93.10
36556;DHT22;40859;50.560;7.268;2022-08-23T04:34:41;24.90;93.10
36556;DHT22;40859;50.560;7.268;2022-08-23T04:37:08;24.90;93.10
36556;DHT22;40859;50.560;7.268;2022-08-23T04:39:35;24.90;92.90
36556;DHT22;40859;50.560;7.268;2022-08-23T04:44:43;24.60;92.10
36556;DHT22;40859;50.560;7.268;2022-08-23T04:47:08;24.60;93.10
36556;DHT22;40859;50.560;7.268;2022-08-23T04:49:35;24.60;93.10
36556;DHT22;40859;50.560;7.268;2022-08-23T04:52:02;24.60;93.00
36556;DHT22;40859;50.560;7.268;2022-08-23T04:54:28;24.60;92.90
36556;DHT22;40859;50.560;7.268;2022-08-23T04:56:56;24.60;93.30
36556;DHT22;40859;50.560;7.268;2022-08-23T04:59:21;24.70;93.40
36556;DHT22;40859;50.560;7.268;2022-08-23T05:01:49;24.70;93.40
36556;DHT22;40859;50.560;7.268;2022-08-23T05:04:15;24.70;93.30
36556;DHT22;40859;50.560;7.268;2022-08-23T05:06:41;24.70;93.40
36556;DHT22;40859;50.560;7.268;2022-08-23T05:09:08;24.70;93.00
36556;DHT22;40859;50.560;7.268;2022-08-23T05:11:34;24.70;92.90
36556;DHT22;40859;50.560;7.268;2022-08-23T05:14:00;24.70;92.80
36556;DHT22;40859;50.560;7.268;2022-08-23T05:16:27;24.70;92.70
36556;DHT22;40859;50.560;7.268;2022-08-23T05:18:53;24.70;92.60
36556;DHT22;40859;50.560;7.268;2022-08-23T05:21:22;24.70;92.60
36556;DHT22;40859;50.560;7.268;2022-08-23T05:23:48;24.70;92.60
36556;DHT22;40859;50.560;7.268;2022-08-23T05:26:15;24.60;92.40
36556;DHT22;40859;50.560;7.268;2022-08-23T05:28:43;24.60;92.50
36556;DHT22;40859;50.560;7.268;2022-08-23T05:31:14;24.60;92.50
36556;DHT22;40859;50.560;7.268;2022-08-23T05:33:41;24.60;92.50
36556;DHT22;40859;50.560;7.268;2022-08-23T05:36:10;24.60;92.50
36556;DHT22;40859;50.560;7.268;2022-08-23T05:38:36;24.60;92.70
36556;DHT22;40859;50.560;7.268;2022-08-23T05:41:03;24.60;92.80
36556;DHT22;40859;50.560;7.268;2022-08-23T05:43:30;24.60;92.90
36556;DHT22;40859;50.560;7.268;2022-08-23T05:46:17;24.60;93.00
36556;DHT22;40859;50.560;7.268;2022-08-23T05:48:45;24.60;93.00
36556;DHT22;40859;50.560;7.268;2022-08-23T05:51:15;24.60;93.10
36556;DHT22;40859;50.560;7.268;2022-08-23T05:53:42;24.60;93.10
36556;DHT22;40859;50.560;7.268;2022-08-23T05:56:29;24.60;93.10
36556;DHT22;40859;50.560;7.268;2022-08-23T05:58:59;24.60;93.20
36556;DHT22;40859;50.560;7.268;2022-08-23T06:01:26;24.50;93.20
36556;DHT22;40859;50.560;7.268;2022-08-23T06:03:53;24.50;93.20
36556;DHT22;40859;50.560;7.268;2022-08-23T06:06:19;24.50;93.30
36556;DHT22;40859;50.560;7.268;2022-08-23T06:08:46;24.50;93.40
36556;DHT22;40859;50.560;7.268;2022-08-23T06:11:16;24.60;93.40
36556;DHT22;40859;50.560;7.268;2022-08-23T06:13:45;24.60;93.40
36556;DHT22;40859;50.560;7.268;2022-08-23T06:16:13;24.50;93.60
36556;DHT22;40859;50.560;7.268;2022-08-23T06:18:39;24.40;93.70
36556;DHT22;40859;50.560;7.268;2022-08-23T06:21:07;24.40;93.80
36556;DHT22;40859;50.560;7.268;2022-08-23T06:23:35;24.30;93.90
36556;DHT22;40859;50.560;7.268;2022-08-23T06:26:13;24.30;93.90
36556;DHT22;40859;50.560;7.268;2022-08-23T06:28:40;24.40;93.90
36556;DHT22;40859;50.560;7.268;2022-08-23T06:31:06;24.40;93.90
36556;DHT22;40859;50.560;7.268;2022-08-23T06:33:32;24.40;93.90
36556;DHT22;40859;50.560;7.268;2022-08-23T06:36:09;24.40;93.80
36556;DHT22;40859;50.560;7.268;2022-08-23T06:38:35;24.40;93.80
36556;DHT22;40859;50.560;7.268;2022-08-23T06:41:03;24.50;93.90
36556;DHT22;40859;50.560;7.268;2022-08-23T06:43:30;24.50;93.90
36556;DHT22;40859;50.560;7.268;2022-08-23T06:46:57;24.50;93.80
36556;DHT22;40859;50.560;7.268;2022-08-23T06:49:23;24.50;93.80
36556;DHT22;40859;50.560;7.268;2022-08-23T06:51:52;24.50;93.90
36556;DHT22;40859;50.560;7.268;2022-08-23T06:54:21;24.50;93.90
36556;DHT22;40859;50.560;7.268;2022-08-23T06:56:48;24.50;93.90
36556;DHT22;40859;50.560;7.268;2022-08-23T06:59:14;24.50;93.90
36556;DHT22;40859;50.560;7.268;2022-08-23T07:01:53;24.50;93.90
36556;DHT22;40859;50.560;7.268;2022-08-23T07:04:25;24.50;93.90
36556;DHT22;40859;50.560;7.268;2022-08-23T07:06:51;24.50;93.90
36556;DHT22;40859;50.560;7.268;2022-08-23T07:09:17;24.50;93.90
36556;DHT22;40859;50.560;7.268;2022-08-23T07:11:43;24.60;93.90
36556;DHT22;40859;50.560;7.268;2022-08-23T07:14:14;24.60;93.90
36556;DHT22;40859;50.560;7.268;2022-08-23T07:16:54;24.60;93.90
36556;DHT22;40859;50.560;7.268;2022-08-23T07:19:22;24.60;94.00
36556;DHT22;40859;50.560;7.268;2022-08-23T07:21:49;24.50;94.00
36556;DHT22;40859;50.560;7.268;2022-08-23T07:24:16;24.60;94.00
36556;DHT22;40859;50.560;7.268;2022-08-23T07:26:43;24.60;94.00
36556;DHT22;40859;50.560;7.268;2022-08-23T07:29:11;24.60;94.00
36556;DHT22;40859;50.560;7.268;2022-08-23T07:31:45;24.60;94.00
36556;DHT22;40859;50.560;7.268;2022-08-23T07:34:12;24.60;94.00
36556;DHT22;40859;50.560;7.268;2022-08-23T07:36:40;24.60;94.00
36556;DHT22;40859;50.560;7.268;2022-08-23T07:39:07;24.60;93.90
36556;DHT22;40859;50.560;7.268;2022-08-23T07:41:34;24.60;93.90
36556;DHT22;40859;50.560;7.268;2022-08-23T07:44:05;24.60;93.90
36556;DHT22;40859;50.560;7.268;2022-08-23T07:46:31;24.60;93.80
36556;DHT22;40859;50.560;7.268;2022-08-23T07:48:59;24.50;93.80
36556;DHT22;40859;50.560;7.268;2022-08-23T07:51:26;24.60;93.80
36556;DHT22;40859;50.560;7.268;2022-08-23T07:53:53;24.60;93.80
36556;DHT22;40859;50.560;7.268;2022-08-23T07:56:19;24.60;93.70
36556;DHT22;40859;50.560;7.268;2022-08-23T07:58:45;24.60;93.60
36556;DHT22;40859;50.560;7.268;2022-08-23T08:01:18;24.60;93.50
36556;DHT22;40859;50.560;7.268;2022-08-23T08:03:46;24.60;93.50
36556;DHT22;40859;50.560;7.268;2022-08-23T08:06:19;24.60;93.50
36556;DHT22;40859;50.560;7.268;2022-08-23T08:08:46;24.60;93.40
36556;DHT22;40859;50.560;7.268;2022-08-23T08:11:15;24.60;93.30
36556;DHT22;40859;50.560;7.268;2022-08-23T08:13:43;24.60;93.10
36556;DHT22;40859;50.560;7.268;2022-08-23T08:16:27;24.60;93.00
36556;DHT22;40859;50.560;7.268;2022-08-23T08:18:56;24.60;93.00
36556;DHT22;40859;50.560;7.268;2022-08-23T08:21:24;24.60;92.90
36556;DHT22;40859;50.560;7.268;2022-08-23T08:23:51;24.60;92.90
36556;DHT22;40859;50.560;7.268;2022-08-23T08:26:18;24.60;92.90
36556;DHT22;40859;50.560;7.268;2022-08-23T08:28:45;24.60;92.80
36556;DHT22;40859;50.560;7.268;2022-08-23T08:31:11;24.60;92.70
36556;DHT22;40859;50.560;7.268;2022-08-23T08:33:38;24.60;92.80
36556;DHT22;40859;50.560;7.268;2022-08-23T08:36:05;24.60;92.80
36556;DHT22;40859;50.560;7.268;2022-08-23T08:38:33;24.60;92.80
36556;DHT22;40859;50.560;7.268;2022-08-23T08:41:16;24.60;92.80
36556;DHT22;40859;50.560;7.268;2022-08-23T08:46:41;24.60;92.70
36556;DHT22;40859;50.560;7.268;2022-08-23T08:49:15;24.60;92.70
36556;DHT22;40859;50.560;7.268;2022-08-23T08:52:29;24.60;92.60
36556;DHT22;40859;50.560;7.268;2022-08-23T08:55:05;24.60;92.50
36556;DHT22;40859;50.560;7.268;2022-08-23T08:57:38;24.60;92.60
36556;DHT22;40859;50.560;7.268;2022-08-23T09:00:18;24.70;92.60
36556;DHT22;40859;50.560;7.268;2022-08-23T09:02:45;24.60;92.50
36556;DHT22;40859;50.560;7.268;2022-08-23T09:05:35;24.60;92.50
36556;DHT22;40859;50.560;7.268;2022-08-23T09:11:41;24.70;92.50
36556;DHT22;40859;50.560;7.268;2022-08-23T09:20:59;24.70;92.50
36556;DHT22;40859;50.560;7.268;2022-08-23T09:23:40;24.70;92.40
36556;DHT22;40859;50.560;7.268;2022-08-23T09:26:28;24.70;92.20
36556;DHT22;40859;50.560;7.268;2022-08-23T09:28:59;24.70;92.20
36556;DHT22;40859;50.560;7.268;2022-08-23T09:32:34;24.70;92.30
36556;DHT22;40859;50.560;7.268;2022-08-23T09:35:15;24.70;92.40
36556;DHT22;40859;50.560;7.268;2022-08-23T09:37:52;24.70;92.40
36556;DHT22;40859;50.560;7.268;2022-08-23T09:40:29;24.70;92.30
36556;DHT22;40859;50.560;7.268;2022-08-23T09:43:20;24.70;92.30
36556;DHT22;40859;50.560;7.268;2022-08-23T09:45:59;24.80;92.30
36556;DHT22;40859;50.560;7.268;2022-08-23T09:48:44;24.70;92.70
36556;DHT22;40859;50.560;7.268;2022-08-23T09:51:30;24.80;92.30
36556;DHT22;40859;50.560;7.268;2022-08-23T09:54:59;24.80;92.20
36556;DHT22;40859;50.560;7.268;2022-08-23T09:57:29;24.80;92.30
36556;DHT22;40859;50.560;7.268;2022-08-23T10:00:01;24.80;92.20
36556;DHT22;40859;50.560;7.268;2022-08-23T10:02:44;24.80;92.20
36556;DHT22;40859;50.560;7.268;2022-08-23T10:05:29;24.80;92.30
36556;DHT22;40859;50.560;7.268;2022-08-23T10:07:59;24.80;92.60
36556;DHT22;40859;50.560;7.268;2022-08-23T10:10:39;24.80;92.30
36556;DHT22;40859;50.560;7.268;2022-08-23T10:13:09;24.80;92.20
36556;DHT22;40859;50.560;7.268;2022-08-23T10:16:11;24.80;92.20
36556;DHT22;40859;50.560;7.268;2022-08-23T10:19:05;24.80;92.20
36556;DHT22;40859;50.560;7.268;2022-08-23T10:21:57;24.90;92.30
36556;DHT22;40859;50.560;7.268;2022-08-23T10:24:40;24.90;92.30
36556;DHT22;40859;50.560;7.268;2022-08-23T10:30:48;24.90;92.30
36556;DHT22;40859;50.560;7.268;2022-08-23T10:33:33;24.90;92.30
36556;DHT22;40859;50.560;7.268;2022-08-23T10:43:18;24.90;92.40
36556;DHT22;40859;50.560;7.268;2022-08-23T10:45:52;24.90;92.20
36556;DHT22;40859;50.560;7.268;2022-08-23T10:48:28;24.90;92.00
36556;DHT22;40859;50.560;7.268;2022-08-23T10:51:10;24.90;91.90
36556;DHT22;40859;50.560;7.268;2022-08-23T10:54:02;24.90;91.80
36556;DHT22;40859;50.560;7.268;2022-08-23T10:56:30;24.90;91.80
36556;DHT22;40859;50.560;7.268;2022-08-23T11:04:28;24.90;91.60
36556;DHT22;40859;50.560;7.268;2022-08-23T11:06:58;24.90;91.70
36556;DHT22;40859;50.560;7.268;2022-08-23T11:09:31;24.90;91.70
36556;DHT22;40859;50.560;7.268;2022-08-23T11:13:52;24.90;91.70
36556;DHT22;40859;50.560;7.268;2022-08-23T11:16:27;25.00;91.80
36556;DHT22;40859;50.560;7.268;2022-08-23T11:18:53;25.00;91.60
36556;DHT22;40859;50.560;7.268;2022-08-23T11:21:55;25.00;92.10
36556;DHT22;40859;50.560;7.268;2022-08-23T11:25:37;25.00;91.60
36556;DHT22;40859;50.560;7.268;2022-08-23T11:35:25;25.00;91.50
36556;DHT22;40859;50.560;7.268;2022-08-23T11:38:00;25.00;91.30
36556;DHT22;40859;50.560;7.268;2022-08-23T11:43:33;25.00;91.30
36556;DHT22;40859;50.560;7.268;2022-08-23T11:51:21;25.00;91.30
36556;DHT22;40859;50.560;7.268;2022-08-23T12:00:25;25.10;91.40
36556;DHT22;40859;50.560;7.268;2022-08-23T12:03:23;25.10;91.40
36556;DHT22;40859;50.560;7.268;2022-08-23T12:06:34;25.10;91.40
36556;DHT22;40859;50.560;7.268;2022-08-23T12:09:04;25.10;91.40
36556;DHT22;40859;50.560;7.268;2022-08-23T12:18:19;25.10;91.50
36556;DHT22;40859;50.560;7.268;2022-08-23T12:20:46;25.10;91.30
36556;DHT22;40859;50.560;7.268;2022-08-23T12:23:17;25.20;91.20
36556;DHT22;40859;50.560;7.268;2022-08-23T12:25:43;25.20;91.20
36556;DHT22;40859;50.560;7.268;2022-08-23T12:28:48;25.20;91.10
36556;DHT22;40859;50.560;7.268;2022-08-23T12:33:57;25.20;91.10
36556;DHT22;40859;50.560;7.268;2022-08-23T12:36:43;25.20;91.20
36556;DHT22;40859;50.560;7.268;2022-08-23T12:39:36;25.20;91.10
36556;DHT22;40859;50.560;7.268;2022-08-23T12:44:45;25.30;91.10
36556;DHT22;40859;50.560;7.268;2022-08-23T12:47:17;25.20;90.90
36556;DHT22;40859;50.560;7.268;2022-08-23T12:49:55;25.30;90.90
36556;DHT22;40859;50.560;7.268;2022-08-23T12:52:24;25.30;91.00
36556;DHT22;40859;50.560;7.268;2022-08-23T12:54:51;25.30;90.80
36556;DHT22;40859;50.560;7.268;2022-08-23T12:57:34;25.30;90.70
36556;DHT22;40859;50.560;7.268;2022-08-23T13:00:25;25.30;90.80
36556;DHT22;40859;50.560;7.268;2022-08-23T13:03:13;25.30;90.70
36556;DHT22;40859;50.560;7.268;2022-08-23T13:05:55;25.30;90.60
36556;DHT22;40859;50.560;7.268;2022-08-23T13:08:30;25.30;90.60
36556;DHT22;40859;50.560;7.268;2022-08-23T13:10:57;25.30;90.90
36556;DHT22;40859;50.560;7.268;2022-08-23T13:13:25;25.30;90.60
36556;DHT22;40859;50.560;7.268;2022-08-23T13:15:55;25.30;90.70
36556;DHT22;40859;50.560;7.268;2022-08-23T13:18:28;25.30;90.50
36556;DHT22;40859;50.560;7.268;2022-08-23T13:21:27;25.40;90.50
36556;DHT22;40859;50.560;7.268;2022-08-23T13:24:11;25.40;90.50
36556;DHT22;40859;50.560;7.268;2022-08-23T13:26:51;25.40;90.40
36556;DHT22;40859;50.560;7.268;2022-08-23T13:29:26;25.40;90.40
36556;DHT22;40859;50.560;7.268;2022-08-23T13:32:00;25.40;90.40
36556;DHT22;40859;50.560;7.268;2022-08-23T13:34:45;25.40;90.40
36556;DHT22;40859;50.560;7.268;2022-08-23T13:40:07;25.40;90.50
36556;DHT22;40859;50.560;7.268;2022-08-23T13:42:44;25.40;89.80
36556;DHT22;40859;50.560;7.268;2022-08-23T13:45:33;25.40;89.20
36556;DHT22;40859;50.560;7.268;2022-08-23T13:48:06;25.50;89.20
36556;DHT22;40859;50.560;7.268;2022-08-23T13:50:36;25.50;89.00
36556;DHT22;40859;50.560;7.268;2022-08-23T13:53:03;25.50;88.80
36556;DHT22;40859;50.560;7.268;2022-08-23T13:55:30;25.50;88.50
36556;DHT22;40859;50.560;7.268;2022-08-23T13:57:58;25.50;88.60
36556;DHT22;40859;50.560;7.268;2022-08-23T14:00:25;25.50;88.60
36556;DHT22;40859;50.560;7.268;2022-08-23T14:02:51;25.50;88.30
36556;DHT22;40859;50.560;7.268;2022-08-23T14:05:19;25.50;88.30
36556;DHT22;40859;50.560;7.268;2022-08-23T14:07:47;25.50;88.20
36556;DHT22;40859;50.560;7.268;2022-08-23T14:10:19;25.50;88.10
36556;DHT22;40859;50.560;7.268;2022-08-23T14:12:46;25.50;87.70
36556;DHT22;40859;50.560;7.268;2022-08-23T14:15:13;25.60;87.70
36556;DHT22;40859;50.560;7.268;2022-08-23T14:17:45;25.60;87.80
36556;DHT22;40859;50.560;7.268;2022-08-23T14:20:11;25.60;87.70
36556;DHT22;40859;50.560;7.268;2022-08-23T14:22:38;25.60;87.70
36556;DHT22;40859;50.560;7.268;2022-08-23T14:25:05;25.60;87.90
36556;DHT22;40859;50.560;7.268;2022-08-23T14:27:32;25.60;87.80
36556;DHT22;40859;50.560;7.268;2022-08-23T14:29:58;25.60;87.60
36556;DHT22;40859;50.560;7.268;2022-08-23T14:32:24;25.60;87.60
36556;DHT22;40859;50.560;7.268;2022-08-23T14:34:50;25.70;87.60
36556;DHT22;40859;50.560;7.268;2022-08-23T14:37:16;25.70;87.70
36556;DHT22;40859;50.560;7.268;2022-08-23T14:39:42;25.70;87.60
36556;DHT22;40859;50.560;7.268;2022-08-23T14:42:09;25.70;87.30
36556;DHT22;40859;50.560;7.268;2022-08-23T14:44:36;25.70;87.00
36556;DHT22;40859;50.560;7.268;2022-08-23T14:47:04;25.70;87.10
36556;DHT22;40859;50.560;7.268;2022-08-23T14:49:30;25.70;87.00
36556;DHT22;40859;50.560;7.268;2022-08-23T14:51:56;25.70;87.00
36556;DHT22;40859;50.560;7.268;2022-08-23T14:54:23;25.80;87.20
36556;DHT22;40859;50.560;7.268;2022-08-23T14:56:50;25.80;87.40
36556;DHT22;40859;50.560;7.268;2022-08-23T14:59:16;25.70;87.20
36556;DHT22;40859;50.560;7.268;2022-08-23T15:01:42;25.80;87.50
36556;DHT22;40859;50.560;7.268;2022-08-23T15:04:08;25.80;87.50
36556;DHT22;40859;50.560;7.268;2022-08-23T15:06:35;25.80;87.30
36556;DHT22;40859;50.560;7.268;2022-08-23T15:09:01;25.80;87.20
36556;DHT22;40859;50.560;7.268;2022-08-23T15:11:27;25.80;87.30
36556;DHT22;40859;50.560;7.268;2022-08-23T15:13:53;25.80;87.30
36556;DHT22;40859;50.560;7.268;2022-08-23T15:16:21;25.80;88.30
36556;DHT22;40859;50.560;7.268;2022-08-23T15:18:49;25.80;87.50
36556;DHT22;40859;50.560;7.268;2022-08-23T15:21:15;25.90;87.50
36556;DHT22;40859;50.560;7.268;2022-08-23T15:23:42;25.80;87.30
36556;DHT22;40859;50.560;7.268;2022-08-23T15:26:10;25.90;87.40
36556;DHT22;40859;50.560;7.268;2022-08-23T15:28:36;25.90;87.40
36556;DHT22;40859;50.560;7.268;2022-08-23T15:31:04;25.90;87.40
36556;DHT22;40859;50.560;7.268;2022-08-23T15:33:30;25.90;87.30
36556;DHT22;40859;50.560;7.268;2022-08-23T15:35:58;25.90;87.20
36556;DHT22;40859;50.560;7.268;2022-08-23T15:38:26;25.90;87.40
36556;DHT22;40859;50.560;7.268;2022-08-23T15:40:53;25.90;87.60
36556;DHT22;40859;50.560;7.268;2022-08-23T15:43:21;25.90;87.60
36556;DHT22;40859;50.560;7.268;2022-08-23T15:45:48;25.90;87.60
36556;DHT22;40859;50.560;7.268;2022-08-23T15:48:21;25.90;87.60
36556;DHT22;40859;50.560;7.268;2022-08-23T15:50:48;26.00;87.60
36556;DHT22;40859;50.560;7.268;2022-08-23T15:53:15;25.90;87.60
36556;DHT22;40859;50.560;7.268;2022-08-23T15:55:42;25.90;87.50
36556;DHT22;40859;50.560;7.268;2022-08-23T15:58:21;26.00;87.50
36556;DHT22;40859;50.560;7.268;2022-08-23T16:00:48;26.00;87.50
36556;DHT22;40859;50.560;7.268;2022-08-23T16:03:15;26.00;87.50
36556;DHT22;40859;50.560;7.268;2022-08-23T16:05:43;26.00;87.50
36556;DHT22;40859;50.560;7.268;2022-08-23T16:08:17;26.00;87.50
36556;DHT22;40859;50.560;7.268;2022-08-23T16:10:44;26.00;87.50
36556;DHT22;40859;50.560;7.268;2022-08-23T16:13:10;26.00;87.60
36556;DHT22;40859;50.560;7.268;2022-08-23T16:15:38;26.00;87.70
36556;DHT22;40859;50.560;7.268;2022-08-23T16:18:05;26.00;87.90
36556;DHT22;40859;50.560;7.268;2022-08-23T16:20:31;26.00;87.90
36556;DHT22;40859;50.560;7.268;2022-08-23T16:22:57;26.00;88.70
36556;DHT22;40859;50.560;7.268;2022-08-23T16:25:23;26.00;87.80
36556;DHT22;40859;50.560;7.268;2022-08-23T16:27:49;26.00;87.90
36556;DHT22;40859;50.560;7.268;2022-08-23T16:30:15;26.10;88.10
36556;DHT22;40859;50.560;7.268;2022-08-23T16:32:41;26.10;88.20
36556;DHT22;40859;50.560;7.268;2022-08-23T16:35:08;26.10;88.20
36556;DHT22;40859;50.560;7.268;2022-08-23T16:37:34;26.10;88.60
36556;DHT22;40859;50.560;7.268;2022-08-23T16:40:02;26.10;88.60
36556;DHT22;40859;50.560;7.268;2022-08-23T16:42:29;26.10;88.70
36556;DHT22;40859;50.560;7.268;2022-08-23T16:44:54;26.10;88.90
36556;DHT22;40859;50.560;7.268;2022-08-23T16:47:20;26.10;88.90
36556;DHT22;40859;50.560;7.268;2022-08-23T16:49:46;26.10;88.90
36556;DHT22;40859;50.560;7.268;2022-08-23T16:52:12;26.10;88.90
36556;DHT22;40859;50.560;7.268;2022-08-23T16:54:39;26.10;88.90
36556;DHT22;40859;50.560;7.268;2022-08-23T16:57:04;26.20;89.00
36556;DHT22;40859;50.560;7.268;2022-08-23T16:59:30;26.20;89.80
36556;DHT22;40859;50.560;7.268;2022-08-23T17:01:59;26.20;89.40
36556;DHT22;40859;50.560;7.268;2022-08-23T17:04:27;26.20;89.50
36556;DHT22;40859;50.560;7.268;2022-08-23T17:06:54;26.20;89.60
36556;DHT22;40859;50.560;7.268;2022-08-23T17:09:24;26.20;89.80
36556;DHT22;40859;50.560;7.268;2022-08-23T17:11:51;26.20;89.20